Time;durP1;ratioP1;P1;durP2;ratioP2;P2;SDS_P1;SDS_P2;PMS_P1;PMS_P2;Temp;Humidity;BMP_temperature;BMP_pressure;BME280_temperature;BME280_humidity;BME280_pressure;Samples;Min_cycle;Max_cycle;Signal;HPM_P1;HPM_P2
2021/09/10 00:01:55;;;;;;;5.30;1.30;;;;;;;19.73;70.77;100425.90;110761;1205;61892;-79
2021/09/10 00:04:22;;;;;;;3.20;1.90;;;;;;;19.69;70.97;100423.99;110554;1206;72533;-79
2021/09/10 00:06:50;;;;;;;4.20;1.80;;;;;;;19.66;71.43;100424.89;110659;1207;62728;-79
2021/09/10 00:09:18;;;;;;;5.40;2.10;;;;;;;19.62;71.39;100428.11;110801;1205;61886;-80
2021/09/10 00:11:45;;;;;;;3.70;1.60;;;;;;;19.59;72.03;100423.85;110837;1199;75296;-78
2021/09/10 00:14:11;;;;;;;4.40;1.80;;;;;;;19.54;71.97;100423.72;110805;1205;70975;-79
2021/09/10 00:16:38;;;;;;;2.20;1.30;;;;;;;19.51;72.75;100433.27;110846;1206;73630;-79
2021/09/10 00:19:05;;;;;;;3.80;1.50;;;;;;;19.47;73.72;100445.53;110975;1205;62570;-80
2021/09/10 00:21:32;;;;;;;4.00;1.30;;;;;;;19.42;74.04;100451.46;110916;1206;61952;-80
2021/09/10 00:23:58;;;;;;;3.20;1.50;;;;;;;19.38;74.37;100445.89;110888;1205;75559;-80
2021/09/10 00:26:25;;;;;;;2.80;1.60;;;;;;;19.35;75.13;100444.88;110914;1206;61920;-78
2021/09/10 00:28:51;;;;;;;2.30;1.40;;;;;;;19.33;75.47;100447.02;110774;1205;61824;-81
2021/09/10 00:31:18;;;;;;;2.70;1.80;;;;;;;19.32;75.51;100443.69;110697;1206;61931;-78
2021/09/10 00:33:45;;;;;;;3.90;1.80;;;;;;;19.34;75.86;100448.41;110473;1200;61913;-83
2021/09/10 00:36:12;;;;;;;3.40;1.60;;;;;;;19.37;75.77;100447.61;110790;1205;76310;-79
2021/09/10 00:38:38;;;;;;;2.90;1.50;;;;;;;19.39;75.46;100442.85;110649;1206;69797;-79
2021/09/10 00:41:05;;;;;;;6.10;1.50;;;;;;;19.39;75.80;100445.63;110843;1206;61893;-80
2021/09/10 00:43:32;;;;;;;3.70;2.00;;;;;;;19.37;75.99;100447.00;110806;1206;61826;-79
2021/09/10 00:45:59;;;;;;;2.80;1.80;;;;;;;19.34;76.43;100449.52;110830;1200;61850;-79
2021/09/10 00:48:27;;;;;;;2.40;1.60;;;;;;;19.30;76.78;100450.52;110948;1198;75401;-81
2021/09/10 00:50:55;;;;;;;5.20;2.10;;;;;;;19.27;76.86;100449.05;110991;1205;71015;-79
2021/09/10 00:53:22;;;;;;;6.60;1.80;;;;;;;19.26;77.32;100453.23;110910;1205;73726;-79
2021/09/10 00:55:48;;;;;;;3.40;2.20;;;;;;;19.23;77.18;100455.98;110878;1205;62920;-79
2021/09/10 00:58:16;;;;;;;5.50;2.00;;;;;;;19.20;77.40;100458.44;110646;1198;61960;-81
2021/09/10 01:00:42;;;;;;;2.90;2.00;;;;;;;19.14;77.67;100452.45;110711;1206;75617;-79
2021/09/10 01:03:11;;;;;;;3.50;2.30;;;;;;;19.09;78.43;100450.31;110982;1206;70919;-80
2021/09/10 01:05:42;;;;;;;3.00;2.10;;;;;;;19.05;78.97;100451.64;110748;1205;72601;-80
2021/09/10 01:08:11;;;;;;;2.80;1.70;;;;;;;19.03;79.22;100448.95;110796;1205;63150;-81
2021/09/10 01:10:39;;;;;;;4.00;1.70;;;;;;;19.01;79.30;100452.30;110728;1205;62701;-79
2021/09/10 01:13:07;;;;;;;3.20;1.90;;;;;;;18.98;79.04;100453.30;110597;1198;74276;-79
2021/09/10 01:15:34;;;;;;;4.00;1.70;;;;;;;18.94;78.98;100453.17;110915;1206;71921;-80
2021/09/10 01:18:00;;;;;;;3.40;1.90;;;;;;;18.89;78.89;100451.50;110766;1198;72408;-80
2021/09/10 01:20:27;;;;;;;2.90;1.80;;;;;;;18.87;79.20;100454.15;110792;1206;61902;-81
2021/09/10 01:22:53;;;;;;;4.40;2.00;;;;;;;18.83;79.28;100456.00;110706;1199;61885;-78
2021/09/10 01:25:21;;;;;;;4.10;1.90;;;;;;;18.80;80.19;100457.23;110609;1205;61829;-80
2021/09/10 01:27:51;;;;;;;3.60;2.20;;;;;;;18.77;80.69;100464.98;110592;1203;72196;-79
2021/09/10 01:30:22;;;;;;;4.10;1.60;;;;;;;18.74;80.82;100462.81;110795;1206;72845;-80
2021/09/10 01:32:49;;;;;;;3.00;1.60;;;;;;;18.72;80.66;100464.97;111287;1198;62013;-80
2021/09/10 01:35:16;;;;;;;4.80;2.00;;;;;;;18.70;81.05;100465.24;111150;1198;61819;-80
2021/09/10 01:37:44;;;;;;;3.50;2.10;;;;;;;18.66;81.27;100463.39;111072;1206;75441;-79
2021/09/10 01:40:11;;;;;;;4.50;2.40;;;;;;;18.63;81.48;100464.67;110817;1206;71149;-78
2021/09/10 01:42:39;;;;;;;3.70;2.10;;;;;;;18.61;81.82;100466.66;111073;1206;72696;-79
2021/09/10 01:45:08;;;;;;;6.50;3.00;;;;;;;18.59;82.02;100471.98;110636;1205;62716;-79
2021/09/10 01:47:35;;;;;;;4.90;2.40;;;;;;;18.58;82.02;100472.23;110785;1205;61870;-79
2021/09/10 01:50:04;;;;;;;4.90;2.30;;;;;;;18.59;82.19;100474.29;110590;1206;76319;-79
2021/09/10 01:52:30;;;;;;;3.60;2.20;;;;;;;18.60;82.84;100474.70;110875;1206;71102;-79
2021/09/10 01:54:57;;;;;;;4.70;2.60;;;;;;;18.61;83.11;100477.84;110833;1205;61877;-80
2021/09/10 01:57:23;;;;;;;3.40;2.20;;;;;;;18.63;83.21;100480.02;110841;1205;61973;-79
2021/09/10 01:59:50;;;;;;;6.00;3.30;;;;;;;18.64;83.35;100479.74;110821;1206;61919;-79
2021/09/10 02:02:18;;;;;;;3.90;2.70;;;;;;;18.65;83.22;100479.92;110586;1206;75471;-79
2021/09/10 02:04:45;;;;;;;5.00;2.20;;;;;;;18.67;83.52;100481.69;110701;1205;71676;-79
2021/09/10 02:07:12;;;;;;;5.40;2.90;;;;;;;18.68;83.55;100485.88;110656;1206;61796;-78
2021/09/10 02:09:39;;;;;;;5.20;2.60;;;;;;;18.68;83.26;100486.66;110638;1206;61930;-80
2021/09/10 02:12:06;;;;;;;5.90;2.80;;;;;;;18.69;83.35;100485.11;110620;1198;61953;-77
2021/09/10 02:14:34;;;;;;;4.00;2.50;;;;;;;18.70;83.34;100487.61;110739;1205;74670;-79
2021/09/10 02:17:01;;;;;;;3.60;2.30;;;;;;;18.72;83.36;100487.34;110654;1206;71090;-79
2021/09/10 02:19:28;;;;;;;5.10;2.70;;;;;;;18.73;83.51;100486.66;110677;1205;73651;-79
2021/09/10 02:21:54;;;;;;;5.10;2.40;;;;;;;18.75;83.56;100487.67;111097;1200;61871;-79
2021/09/10 02:24:21;;;;;;;4.60;3.10;;;;;;;18.76;83.48;100486.60;110759;1199;61836;-77
2021/09/10 02:26:48;;;;;;;5.20;3.00;;;;;;;18.78;83.40;100483.08;110786;1206;76391;-79
2021/09/10 02:29:15;;;;;;;4.60;2.60;;;;;;;18.78;83.50;100480.39;110707;1206;71617;-79
2021/09/10 02:31:42;;;;;;;4.60;3.00;;;;;;;18.76;83.54;100478.40;111358;1198;73848;-79
2021/09/10 02:34:09;;;;;;;9.30;3.80;;;;;;;18.74;83.68;100475.48;110701;1205;62288;-78
2021/09/10 02:36:36;;;;;;;5.90;3.10;;;;;;;18.72;83.75;100475.48;110671;1206;61893;-79
2021/09/10 02:39:05;;;;;;;4.80;3.00;;;;;;;18.73;83.73;100477.35;110779;1206;75453;-78
2021/09/10 02:41:33;;;;;;;4.30;3.40;;;;;;;18.73;83.81;100477.30;110912;1206;70777;-77
2021/09/10 02:44:00;;;;;;;3.80;2.50;;;;;;;18.73;84.13;100475.90;110819;1205;73724;-78
2021/09/10 02:46:27;;;;;;;6.00;3.20;;;;;;;18.71;84.46;100479.09;110639;1205;61734;-80
2021/09/10 02:48:53;;;;;;;6.30;3.10;;;;;;;18.71;84.44;100477.69;110952;1205;61835;-81
2021/09/10 02:51:20;;;;;;;4.30;3.10;;;;;;;18.69;84.53;100477.91;110896;1205;61861;-79
2021/09/10 02:53:46;;;;;;;4.60;3.10;;;;;;;18.69;84.96;100480.54;110835;1205;61900;-80
2021/09/10 02:56:13;;;;;;;5.80;3.30;;;;;;;18.68;84.92;100482.20;110744;1199;62067;-80
2021/09/10 02:58:39;;;;;;;5.50;3.70;;;;;;;18.67;85.10;100484.15;110715;1199;62575;-79
2021/09/10 03:01:06;;;;;;;5.90;3.60;;;;;;;18.67;85.24;100486.02;110606;1206;61888;-79
2021/09/10 03:03:33;;;;;;;5.20;3.40;;;;;;;18.67;85.20;100486.19;110505;1206;75290;-79
2021/09/10 03:06:00;;;;;;;5.20;3.20;;;;;;;18.68;85.29;100486.75;110755;1205;71235;-79
2021/09/10 03:08:27;;;;;;;8.20;3.80;;;;;;;18.70;85.40;100482.45;110791;1206;72525;-80
2021/09/10 03:10:54;;;;;;;6.90;3.90;;;;;;;18.72;85.54;100479.11;110749;1205;62855;-79
2021/09/10 03:13:20;;;;;;;6.00;4.00;;;;;;;18.74;85.84;100484.05;110658;1199;61860;-79
2021/09/10 03:15:47;;;;;;;6.50;4.00;;;;;;;18.76;86.25;100484.63;110804;1205;62017;-79
2021/09/10 03:18:13;;;;;;;6.20;4.00;;;;;;;18.77;86.30;100481.52;110754;1206;72290;-80
2021/09/10 03:20:40;;;;;;;6.10;4.20;;;;;;;18.76;86.42;100479.24;110811;1205;72592;-79
2021/09/10 03:23:07;;;;;;;7.40;4.30;;;;;;;18.76;86.48;100474.56;110966;1205;63139;-80
2021/09/10 03:25:33;;;;;;;6.10;4.50;;;;;;;18.77;87.19;100479.00;110959;1205;61756;-78
2021/09/10 03:28:00;;;;;;;5.70;3.60;;;;;;;18.77;87.21;100480.02;110835;1205;61922;-80
2021/09/10 03:30:26;;;;;;;5.50;3.10;;;;;;;18.79;86.87;100481.80;113305;1199;70959;-81
2021/09/10 03:32:53;;;;;;;9.70;4.00;;;;;;;18.80;86.81;100485.83;110818;1206;61862;-79
2021/09/10 03:35:19;;;;;;;6.60;3.70;;;;;;;18.82;86.96;100487.64;110798;1207;62706;-79
2021/09/10 03:37:46;;;;;;;4.60;3.30;;;;;;;18.84;87.16;100488.14;110843;1199;61909;-78
2021/09/10 03:40:13;;;;;;;4.60;3.70;;;;;;;18.83;87.22;100483.61;110762;1205;61892;-80
2021/09/10 03:42:39;;;;;;;7.00;3.80;;;;;;;18.82;87.39;100483.34;110774;1206;69967;-79
2021/09/10 03:45:09;;;;;;;6.60;3.80;;;;;;;18.82;87.39;100481.98;110576;1205;61875;-79
2021/09/10 03:47:35;;;;;;;5.30;3.90;;;;;;;18.84;87.97;100482.08;112025;1199;61886;-78
2021/09/10 03:50:02;;;;;;;5.80;3.50;;;;;;;18.85;88.51;100485.49;110713;1205;61892;-79
2021/09/10 03:52:30;;;;;;;7.10;3.50;;;;;;;18.86;89.04;100490.63;110604;1205;76530;-79
2021/09/10 03:54:56;;;;;;;7.20;4.10;;;;;;;18.88;89.12;100493.23;110709;1205;71133;-77
2021/09/10 03:57:23;;;;;;;5.40;3.80;;;;;;;18.89;90.11;100492.10;110751;1205;61822;-78
2021/09/10 03:59:49;;;;;;;6.90;4.30;;;;;;;18.89;90.98;100483.21;110529;1206;62728;-79
2021/09/10 04:02:16;;;;;;;7.70;4.10;;;;;;;18.87;91.71;100488.14;110419;1206;61896;-80
2021/09/10 04:04:42;;;;;;;8.40;4.30;;;;;;;18.85;92.26;100489.99;110677;1206;74435;-77
2021/09/10 04:07:09;;;;;;;12.00;4.40;;;;;;;18.79;94.01;100492.29;110759;1206;61846;-78
2021/09/10 04:09:36;;;;;;;7.80;4.90;;;;;;;18.72;95.10;100494.73;110698;1205;72681;-79
2021/09/10 04:12:03;;;;;;;9.10;4.80;;;;;;;18.65;95.88;100501.52;110554;1199;61931;-79
2021/09/10 04:14:29;;;;;;;10.40;5.30;;;;;;;18.59;96.48;100508.23;110641;1205;61924;-78
2021/09/10 04:16:56;;;;;;;8.10;5.30;;;;;;;18.52;97.06;100508.80;110781;1205;75326;-80
2021/09/10 04:19:23;;;;;;;8.50;5.50;;;;;;;18.45;99.53;100493.37;110723;1206;72036;-79
2021/09/10 04:21:50;;;;;;;16.30;7.10;;;;;;;18.40;100.00;100498.50;110711;1206;61873;-78
2021/09/10 04:24:18;;;;;;;12.80;8.10;;;;;;;18.37;100.00;100507.19;110734;1206;61897;-79
2021/09/10 04:26:45;;;;;;;7.50;4.60;;;;;;;18.36;100.00;100508.07;110757;1206;61914;-79
2021/09/10 04:29:12;;;;;;;10.30;7.10;;;;;;;18.34;100.00;100511.84;110862;1206;76390;-81
2021/09/10 04:31:38;;;;;;;14.10;6.70;;;;;;;18.31;100.00;100510.90;110932;1206;72067;-81
2021/09/10 04:34:05;;;;;;;13.20;7.70;;;;;;;18.31;100.00;100511.65;110873;1205;72596;-79
2021/09/10 04:36:31;;;;;;;10.20;6.80;;;;;;;18.33;100.00;100514.73;110880;1205;61896;-80
2021/09/10 04:38:58;;;;;;;13.10;5.80;;;;;;;18.36;100.00;100509.51;110933;1198;61869;-81
2021/09/10 04:41:24;;;;;;;10.20;7.10;;;;;;;18.38;100.00;100511.05;110879;1205;61876;-83
2021/09/10 04:43:52;;;;;;;11.70;7.20;;;;;;;18.39;100.00;100507.98;111126;1207;71580;-86
2021/09/10 04:46:19;;;;;;;6.70;4.80;;;;;;;18.39;100.00;100514.39;111407;1206;72678;-83
2021/09/10 04:49:07;;;;;;;8.40;6.00;;;;;;;18.41;100.00;100520.50;111288;1193;126834;-80
2021/09/10 04:51:50;;;;;;;10.10;5.90;;;;;;;18.47;100.00;100515.70;111060;1201;61913;-81
2021/09/10 04:54:21;;;;;;;9.70;5.70;;;;;;;18.48;100.00;100516.76;111404;1200;128862;-85
2021/09/10 04:56:47;;;;;;;6.40;5.30;;;;;;;18.50;100.00;100514.05;110984;1206;71007;-85
2021/09/10 04:59:14;;;;;;;7.50;5.40;;;;;;;18.52;100.00;100512.11;111000;1206;61823;-84
2021/09/10 05:01:40;;;;;;;10.30;5.50;;;;;;;18.52;100.00;100511.80;110929;1206;61856;-84
2021/09/10 05:04:07;;;;;;;9.40;5.60;;;;;;;18.52;99.97;100513.62;111068;1200;61890;-85
2021/09/10 05:06:34;;;;;;;9.60;5.70;;;;;;;18.51;100.00;100509.20;111116;1205;74080;-85
2021/09/10 05:09:01;;;;;;;7.50;4.70;;;;;;;18.51;99.88;100513.55;111001;1206;61909;-85
2021/09/10 05:11:28;;;;;;;11.90;5.40;;;;;;;18.50;99.68;100521.04;111007;1206;72564;-85
2021/09/10 05:13:54;;;;;;;7.80;5.50;;;;;;;18.49;99.47;100523.61;110894;1206;62431;-84
2021/09/10 05:16:21;;;;;;;6.80;5.10;;;;;;;18.50;99.87;100526.42;111234;1206;61897;-84
2021/09/10 05:18:48;;;;;;;8.80;5.30;;;;;;;18.52;99.75;100525.66;110971;1207;75100;-85
2021/09/10 05:21:14;;;;;;;9.40;6.60;;;;;;;18.53;99.74;100525.09;111034;1206;61845;-85
2021/09/10 05:23:41;;;;;;;9.60;5.40;;;;;;;18.57;100.00;100531.04;111084;1206;61879;-86
2021/09/10 05:26:08;;;;;;;11.20;4.90;;;;;;;18.59;99.98;100533.40;112276;1200;61847;-85
2021/09/10 05:28:34;;;;;;;10.50;4.40;;;;;;;18.61;99.96;100533.08;111111;1200;61921;-85
2021/09/10 05:31:01;;;;;;;9.90;5.80;;;;;;;18.61;99.77;100534.73;111120;1206;76446;-85
2021/09/10 05:33:27;;;;;;;9.60;6.00;;;;;;;18.62;99.95;100537.17;111173;1205;72014;-73
2021/09/10 05:35:55;;;;;;;8.80;6.00;;;;;;;18.63;100.00;100536.92;110780;1205;72503;-73
2021/09/10 05:38:21;;;;;;;8.30;5.40;;;;;;;18.62;99.98;100536.20;110730;1206;61879;-73
2021/09/10 05:40:48;;;;;;;13.60;6.10;;;;;;;18.60;99.97;100536.27;110561;1205;61813;-74
2021/09/10 05:43:14;;;;;;;7.30;5.80;;;;;;;18.58;100.00;100534.94;110442;1208;61887;-74
2021/09/10 05:45:40;;;;;;;8.80;5.50;;;;;;;18.57;99.99;100532.64;110626;1206;61861;-75
2021/09/10 05:48:07;;;;;;;8.90;6.00;;;;;;;18.56;100.00;100537.25;110649;1206;62017;-75
2021/09/10 05:50:34;;;;;;;10.80;6.10;;;;;;;18.56;100.00;100541.55;110669;1205;61879;-74
2021/09/10 05:53:00;;;;;;;9.00;5.90;;;;;;;18.55;100.00;100542.58;110568;1206;61899;-73
2021/09/10 05:55:27;;;;;;;9.70;5.60;;;;;;;18.55;99.95;100545.48;110784;1206;61899;-75
2021/09/10 05:57:54;;;;;;;11.40;5.60;;;;;;;18.55;99.74;100547.22;110558;1206;70703;-75
2021/09/10 06:00:20;;;;;;;11.20;6.20;;;;;;;18.58;99.79;100549.02;110604;1205;73359;-77
2021/09/10 06:02:47;;;;;;;10.70;6.70;;;;;;;18.60;99.54;100546.91;110750;1198;61892;-74
2021/09/10 06:05:14;;;;;;;8.50;5.20;;;;;;;18.62;99.60;100550.02;111017;1198;61899;-76
2021/09/10 06:07:40;;;;;;;8.30;4.90;;;;;;;18.65;99.43;100547.69;110671;1206;61925;-77
2021/09/10 06:10:07;;;;;;;14.10;7.00;;;;;;;18.75;99.17;100546.62;110934;1206;71570;-77
2021/09/10 06:12:34;;;;;;;9.60;5.80;;;;;;;18.78;98.69;100547.70;111023;1198;73543;-80
2021/09/10 06:15:00;;;;;;;9.50;5.20;;;;;;;18.81;98.59;100549.36;110907;1206;61883;-80
2021/09/10 06:17:27;;;;;;;8.20;5.20;;;;;;;18.83;98.65;100554.95;111093;1206;61895;-80
2021/09/10 06:19:54;;;;;;;11.70;5.90;;;;;;;18.85;98.66;100554.57;110927;1206;61876;-79
2021/09/10 06:22:20;;;;;;;6.80;5.40;;;;;;;18.89;98.52;100557.25;110965;1206;61928;-78
2021/09/10 06:24:47;;;;;;;11.10;6.10;;;;;;;18.89;98.20;100552.52;110958;1205;73563;-78
2021/09/10 06:27:13;;;;;;;9.50;5.10;;;;;;;18.91;98.28;100557.61;110828;1205;61907;-79
2021/09/10 06:29:40;;;;;;;6.30;4.50;;;;;;;18.93;98.42;100563.08;110767;1206;61812;-78
2021/09/10 06:32:06;;;;;;;10.20;6.30;;;;;;;18.94;98.38;100568.32;110802;1206;61865;-80
2021/09/10 06:34:33;;;;;;;8.80;4.80;;;;;;;18.97;98.55;100569.63;110893;1199;61820;-79
2021/09/10 06:37:00;;;;;;;6.80;4.80;;;;;;;18.98;98.33;100571.38;110823;1207;61935;-80
2021/09/10 06:39:26;;;;;;;11.50;5.80;;;;;;;19.04;98.62;100573.77;111055;1206;62874;-81
2021/09/10 06:41:53;;;;;;;9.30;5.10;;;;;;;19.13;98.19;100576.13;110904;1206;61873;-79
2021/09/10 06:44:19;;;;;;;13.10;6.60;;;;;;;19.24;97.79;100576.75;110682;1206;61951;-77
2021/09/10 06:46:46;;;;;;;26.50;17.70;;;;;;;19.28;97.17;100578.83;110930;1205;61844;-79
2021/09/10 06:49:12;;;;;;;13.80;8.80;;;;;;;19.36;96.53;100576.41;110921;1198;73565;-79
2021/09/10 06:51:39;;;;;;;8.50;5.20;;;;;;;19.43;96.21;100573.34;110860;1201;61924;-80
2021/09/10 06:54:05;;;;;;;140.80;68.50;;;;;;;19.48;95.97;100578.78;110891;1206;61848;-79
2021/09/10 06:56:32;;;;;;;8.90;5.00;;;;;;;19.56;95.58;100574.95;110901;1205;61846;-78
2021/09/10 06:58:58;;;;;;;10.70;4.90;;;;;;;19.66;95.13;100571.34;111027;1206;61871;-79
2021/09/10 07:01:25;;;;;;;9.20;5.50;;;;;;;19.75;94.60;100575.20;111038;1206;61934;-80
2021/09/10 07:03:52;;;;;;;11.10;5.50;;;;;;;19.84;93.84;100570.48;111128;1200;62389;-76
2021/09/10 07:06:20;;;;;;;8.00;4.90;;;;;;;19.90;93.25;100573.46;111019;1205;61919;-79
2021/09/10 07:08:47;;;;;;;9.70;5.20;;;;;;;19.94;92.94;100575.05;110997;1206;76400;-79
2021/09/10 07:11:13;;;;;;;9.70;5.80;;;;;;;19.94;92.86;100578.55;111023;1206;71041;-80
2021/09/10 07:13:40;;;;;;;10.00;5.00;;;;;;;19.91;92.73;100580.32;110963;1206;62015;-79
2021/09/10 07:16:07;;;;;;;10.60;5.60;;;;;;;19.90;92.43;100579.21;111092;1205;61890;-79
2021/09/10 07:18:33;;;;;;;11.20;6.30;;;;;;;19.98;92.27;100581.58;111057;1206;62564;-79
2021/09/10 07:21:02;;;;;;;11.70;6.00;;;;;;;20.06;91.75;100577.85;111245;1205;61893;-79
2021/09/10 07:23:32;;;;;;;11.70;5.10;;;;;;;20.15;91.53;100580.44;111045;1199;70699;-80
2021/09/10 07:26:05;;;;;;;9.00;5.30;;;;;;;20.18;91.08;100581.85;111081;1200;72544;-79
2021/09/10 07:28:35;;;;;;;8.10;4.70;;;;;;;20.21;91.09;100581.35;111140;1206;63878;-80
2021/09/10 07:31:04;;;;;;;7.90;5.20;;;;;;;20.23;90.91;100579.90;111105;1201;61899;-79
2021/09/10 07:33:32;;;;;;;9.40;5.60;;;;;;;20.28;90.77;100577.23;111296;1203;75054;-80
2021/09/10 07:35:59;;;;;;;10.00;5.00;;;;;;;20.35;90.58;100577.56;110985;1206;70945;-80
2021/09/10 07:38:33;;;;;;;9.60;5.00;;;;;;;20.48;90.28;100580.05;110983;1200;72403;-78
2021/09/10 07:41:00;;;;;;;6.80;4.70;;;;;;;20.58;89.66;100585.46;111007;1206;61892;-79
2021/09/10 07:43:27;;;;;;;9.00;4.60;;;;;;;20.64;89.17;100583.75;111116;1206;61874;-79
2021/09/10 07:45:54;;;;;;;23.50;14.30;;;;;;;20.70;89.23;100588.55;110925;1206;76399;-78
2021/09/10 07:48:21;;;;;;;6.70;5.30;;;;;;;20.74;88.83;100593.19;110940;1205;71232;-79
2021/09/10 07:50:47;;;;;;;27.60;16.20;;;;;;;20.82;88.52;100598.21;110937;1205;73662;-77
2021/09/10 07:53:14;;;;;;;12.70;7.40;;;;;;;20.87;87.80;100593.59;111070;1206;61926;-79
2021/09/10 07:55:40;;;;;;;9.00;5.90;;;;;;;20.91;87.55;100589.89;111180;1206;61825;-80
2021/09/10 07:58:07;;;;;;;8.00;5.40;;;;;;;20.99;87.63;100591.05;111063;1199;61896;-79
2021/09/10 08:00:33;;;;;;;12.40;5.90;;;;;;;21.07;87.81;100599.20;110911;1205;61899;-76
2021/09/10 08:03:00;;;;;;;7.90;4.70;;;;;;;21.10;87.49;100599.84;110791;1206;72162;-76
2021/09/10 08:05:27;;;;;;;16.10;10.80;;;;;;;21.14;87.46;100599.78;110753;1206;62206;-75
2021/09/10 08:07:53;;;;;;;7.50;5.80;;;;;;;21.19;87.22;100599.09;110694;1206;61874;-78
2021/09/10 08:10:20;;;;;;;7.30;5.20;;;;;;;21.25;87.05;100596.70;110810;1206;61849;-78
2021/09/10 08:12:48;;;;;;;5.20;4.70;;;;;;;21.32;87.47;100600.31;110864;1206;61834;-77
2021/09/10 08:15:16;;;;;;;31.60;18.20;;;;;;;21.37;86.89;100601.95;110935;1206;73701;-75
2021/09/10 08:17:43;;;;;;;12.20;7.30;;;;;;;21.43;86.83;100602.16;110959;1206;61874;-76
2021/09/10 08:20:12;;;;;;;11.20;6.60;;;;;;;21.49;86.47;100608.35;110847;1199;61884;-77
2021/09/10 08:22:40;;;;;;;12.60;8.00;;;;;;;21.55;86.19;100610.27;111016;1206;75544;-76
2021/09/10 08:25:08;;;;;;;11.50;5.90;;;;;;;21.61;85.87;100616.00;110848;1206;70895;-75
2021/09/10 08:27:36;;;;;;;11.60;5.90;;;;;;;21.70;85.78;100618.49;111066;1206;74244;-76
2021/09/10 08:30:07;;;;;;;8.80;5.30;;;;;;;21.80;85.56;100622.66;110944;1206;61982;-75
2021/09/10 08:32:33;;;;;;;8.80;5.10;;;;;;;21.89;84.43;100621.95;110965;1199;62061;-76
2021/09/10 08:35:00;;;;;;;8.60;7.20;;;;;;;21.96;84.22;100628.55;110763;1206;75021;-74
2021/09/10 08:37:27;;;;;;;7.00;4.30;;;;;;;22.05;84.12;100633.59;110836;1206;71566;-76
2021/09/10 08:39:55;;;;;;;10.40;7.20;;;;;;;22.07;83.43;100632.75;110813;1206;73521;-74
2021/09/10 08:42:23;;;;;;;10.70;5.90;;;;;;;22.10;82.43;100631.71;110822;1206;61875;-74
2021/09/10 08:44:50;;;;;;;10.50;6.00;;;;;;;22.15;82.66;100639.23;110951;1206;61913;-74
2021/09/10 08:47:17;;;;;;;6.40;4.70;;;;;;;22.20;82.51;100640.05;110849;1206;76731;-73
2021/09/10 08:49:45;;;;;;;7.70;5.00;;;;;;;22.24;82.05;100639.18;110810;1206;72148;-75
2021/09/10 08:52:14;;;;;;;7.40;4.80;;;;;;;22.28;81.32;100642.70;110853;1206;72327;-75
2021/09/10 08:54:41;;;;;;;9.10;5.80;;;;;;;22.36;81.42;100650.45;111082;1206;63105;-74
2021/09/10 08:57:08;;;;;;;9.30;4.90;;;;;;;22.37;81.09;100655.00;110884;1200;62995;-74
2021/09/10 08:59:35;;;;;;;7.90;4.90;;;;;;;22.33;80.59;100656.84;110864;1206;75584;-73
2021/09/10 09:02:01;;;;;;;9.90;5.50;;;;;;;22.31;80.42;100660.98;110856;1206;61875;-72
2021/09/10 09:04:33;;;;;;;5.70;4.20;;;;;;;22.30;80.36;100663.36;111072;1206;72512;-75
2021/09/10 09:07:04;;;;;;;6.70;4.20;;;;;;;22.34;80.39;100659.67;110970;1206;62678;-73
2021/09/10 09:09:39;;;;;;;14.90;9.60;;;;;;;22.35;79.97;100661.25;111213;1206;62507;-77
2021/09/10 09:12:20;;;;;;;10.30;6.70;;;;;;;22.37;79.64;100659.48;111100;1206;76582;-72
2021/09/10 09:14:51;;;;;;;6.80;4.20;;;;;;;22.44;79.21;100661.84;110977;1206;70897;-74
2021/09/10 09:17:29;;;;;;;8.70;5.40;;;;;;;22.49;79.25;100662.05;111124;1206;73395;-78
2021/09/10 09:20:22;;;;;;;13.00;8.40;;;;;;;22.60;79.41;100660.63;111170;1206;62887;-74
2021/09/10 09:23:04;;;;;;;8.90;5.70;;;;;;;22.73;78.32;100658.21;111320;1206;61812;-75
2021/09/10 09:25:40;;;;;;;7.50;4.90;;;;;;;22.81;77.70;100657.52;110917;1206;75573;-72
2021/09/10 09:28:28;;;;;;;9.60;5.70;;;;;;;22.89;76.91;100652.94;111047;1206;70971;-73
2021/09/10 09:31:03;;;;;;;9.30;6.30;;;;;;;23.09;77.20;100650.64;110951;1207;72354;-73
2021/09/10 09:33:35;;;;;;;19.60;10.90;;;;;;;23.26;75.92;100655.58;110886;1206;61904;-74
2021/09/10 09:36:06;;;;;;;8.90;6.80;;;;;;;23.37;74.71;100663.60;110955;1206;61994;-74
2021/09/10 09:38:37;;;;;;;9.00;6.40;;;;;;;23.43;74.34;100657.58;110952;1206;75301;-74
2021/09/10 09:41:25;;;;;;;7.80;6.60;;;;;;;23.59;73.91;100657.83;110898;1206;70975;-73
2021/09/10 09:44:02;;;;;;;9.20;4.20;;;;;;;23.81;73.10;100657.46;110966;1206;72586;-74
2021/09/10 09:46:30;;;;;;;8.30;6.20;;;;;;;23.89;71.89;100658.70;110855;1206;62054;-72
2021/09/10 09:49:11;;;;;;;10.10;6.50;;;;;;;23.91;72.01;100658.66;111082;1200;61837;-72
2021/09/10 09:51:57;;;;;;;9.70;5.90;;;;;;;23.91;72.21;100654.98;110884;1207;75321;-72
2021/09/10 09:54:29;;;;;;;9.00;5.30;;;;;;;23.87;72.53;100654.58;110848;1206;73522;-74
2021/09/10 09:56:56;;;;;;;8.80;5.90;;;;;;;23.72;71.70;100655.25;110835;1206;73759;-74
2021/09/10 09:59:23;;;;;;;10.80;6.90;;;;;;;23.65;72.28;100650.11;110877;1206;62168;-73
2021/09/10 10:01:49;;;;;;;10.70;7.20;;;;;;;23.58;72.45;100652.58;111066;1206;61948;-73
2021/09/10 10:04:16;;;;;;;10.00;7.30;;;;;;;23.51;72.58;100648.96;111204;1206;76144;-73
2021/09/10 10:06:44;;;;;;;28.00;19.10;;;;;;;23.51;73.07;100650.79;111125;1206;71103;-73
2021/09/10 10:09:15;;;;;;;8.40;5.20;;;;;;;23.52;72.44;100650.42;110964;1206;73720;-75
2021/09/10 10:11:49;;;;;;;8.20;5.40;;;;;;;23.62;72.40;100649.88;110998;1201;61926;-73
2021/09/10 10:14:30;;;;;;;9.20;6.20;;;;;;;23.80;71.93;100646.52;111015;1198;61896;-75
2021/09/10 10:16:59;;;;;;;10.00;7.40;;;;;;;24.08;70.95;100645.23;111013;1207;76355;-74
2021/09/10 10:19:41;;;;;;;9.20;6.50;;;;;;;24.31;70.39;100648.31;111205;1206;71248;-73
2021/09/10 10:22:12;;;;;;;10.10;6.00;;;;;;;24.35;68.63;100651.52;111032;1201;74155;-74
2021/09/10 10:24:52;;;;;;;24.60;16.20;;;;;;;24.36;68.45;100648.77;111038;1201;61918;-75
2021/09/10 10:27:35;;;;;;;23.20;15.70;;;;;;;24.40;68.66;100651.43;110949;1207;61970;-74
2021/09/10 10:30:06;;;;;;;9.20;6.80;;;;;;;24.52;68.69;100646.70;111149;1206;75078;-75
2021/09/10 10:32:49;;;;;;;8.70;6.90;;;;;;;24.54;68.60;100648.28;111186;1206;70800;-73
2021/09/10 10:35:18;;;;;;;22.50;14.90;;;;;;;24.54;68.56;100648.61;110936;1206;73500;-73
2021/09/10 10:37:50;;;;;;;20.10;12.60;;;;;;;24.53;68.54;100642.86;111829;1207;63135;-74
2021/09/10 10:40:28;;;;;;;58.00;34.90;;;;;;;24.61;68.98;100647.31;110818;1206;63064;-76
2021/09/10 10:43:29;;;;;;;29.50;17.10;;;;;;;24.80;69.00;100647.05;111059;1198;75388;-75
2021/09/10 10:46:07;;;;;;;36.00;22.60;;;;;;;24.85;68.06;100648.96;110574;1207;71071;-77
2021/09/10 10:48:40;;;;;;;27.00;16.50;;;;;;;24.78;67.02;100651.17;110574;1206;73553;-74
2021/09/10 10:51:13;;;;;;;19.30;12.30;;;;;;;24.58;66.39;100649.15;110578;1206;61924;-76
2021/09/10 10:53:45;;;;;;;49.00;29.60;;;;;;;24.44;66.70;100646.62;110707;1206;61815;-74
2021/09/10 10:56:21;;;;;;;12.90;9.70;;;;;;;24.33;66.93;100641.27;110820;1206;75081;-76
2021/09/10 10:59:21;;;;;;;7.40;5.90;;;;;;;24.26;66.68;100638.51;110674;1206;72154;-72
2021/09/10 11:02:16;;;;;;;64.00;37.80;;;;;;;24.27;67.29;100638.17;110994;1207;73552;-75
2021/09/10 11:04:46;;;;;;;34.40;22.00;;;;;;;24.31;66.88;100635.73;110832;1206;61889;-73
2021/09/10 11:07:14;;;;;;;20.40;14.00;;;;;;;24.28;67.04;100635.30;111093;1198;61813;-73
2021/09/10 11:09:40;;;;;;;8.00;6.40;;;;;;;24.26;67.09;100632.00;110703;1206;75392;-76
2021/09/10 11:12:07;;;;;;;25.60;15.90;;;;;;;24.26;67.48;100629.44;110881;1206;61823;-73
2021/09/10 11:14:37;;;;;;;20.40;13.10;;;;;;;24.25;67.41;100627.05;110689;1207;61816;-75
2021/09/10 11:17:12;;;;;;;14.60;9.40;;;;;;;24.22;67.64;100625.80;110594;1200;61926;-74
2021/09/10 11:19:46;;;;;;;25.70;14.60;;;;;;;24.15;67.55;100632.02;110877;1206;61982;-74
2021/09/10 11:22:14;;;;;;;51.90;34.20;;;;;;;24.04;67.28;100636.39;111152;1198;75240;-74